Time;durP1;ratioP1;P1;durP2;ratioP2;P2;SDS_P1;SDS_P2;PMS_P1;PMS_P2;Temp;Humidity;BMP_temperature;BMP_pressure;BME280_temperature;BME280_humidity;BME280_pressure;Samples;Min_cycle;Max_cycle;Signal;HPM_P1;HPM_P2
2024/01/27 00:02:07;;;;;;;4.40;2.20;;;;;;;4.84;100.00;99291.87;109432;1253;64305;-76
2024/01/27 00:04:36;;;;;;;3.70;2.20;;;;;;;4.81;100.00;99303.95;109454;1252;58992;-76
2024/01/27 00:07:03;;;;;;;6.00;2.20;;;;;;;4.79;100.00;99315.11;109484;1253;59075;-75
2024/01/27 00:09:30;;;;;;;7.60;1.80;;;;;;;4.78;100.00;99329.77;109474;1253;66005;-75
2024/01/27 00:11:56;;;;;;;4.60;2.10;;;;;;;4.76;100.00;99336.70;109444;1254;61210;-75
2024/01/27 00:14:23;;;;;;;4.80;2.20;;;;;;;4.69;100.00;99346.98;109468;1252;65071;-76
2024/01/27 00:16:50;;;;;;;7.90;3.50;;;;;;;4.61;100.00;99366.46;109442;1252;58966;-76
2024/01/27 00:19:16;;;;;;;9.70;3.20;;;;;;;4.54;100.00;99374.66;109480;1254;59093;-76
2024/01/27 00:21:43;;;;;;;8.90;3.80;;;;;;;4.49;100.00;99379.24;109455;1253;66163;-76
2024/01/27 00:24:10;;;;;;;8.10;3.40;;;;;;;4.44;100.00;99391.03;109502;1254;61042;-75
2024/01/27 00:26:37;;;;;;;9.20;3.10;;;;;;;4.40;100.00;99404.35;109245;1253;65118;-76
2024/01/27 00:29:03;;;;;;;3.00;1.70;;;;;;;4.35;100.00;99409.82;109467;1254;58960;-76
2024/01/27 00:31:30;;;;;;;6.70;2.50;;;;;;;4.27;100.00;99420.10;109414;1252;59054;-74
2024/01/27 00:33:57;;;;;;;9.10;3.40;;;;;;;4.18;100.00;99417.97;109500;1253;67241;-75
2024/01/27 00:36:23;;;;;;;7.80;2.50;;;;;;;4.09;100.00;99424.42;109191;1254;61482;-73
2024/01/27 00:38:50;;;;;;;6.90;3.60;;;;;;;4.06;100.00;99417.15;109267;1253;63798;-74
2024/01/27 00:41:17;;;;;;;12.50;4.70;;;;;;;4.08;100.00;99414.62;109287;1253;59013;-74
2024/01/27 00:43:45;;;;;;;9.80;3.90;;;;;;;4.13;100.00;99413.37;109480;1252;58988;-74
2024/01/27 00:46:12;;;;;;;11.70;4.90;;;;;;;4.17;100.00;99411.84;109479;1252;64843;-75
2024/01/27 00:48:39;;;;;;;9.80;4.30;;;;;;;4.21;100.00;99418.20;109426;1252;61046;-75
2024/01/27 00:51:05;;;;;;;9.60;2.90;;;;;;;4.24;100.00;99425.48;109424;1254;65108;-74
2024/01/27 00:53:32;;;;;;;5.60;1.80;;;;;;;4.27;100.00;99431.20;109418;1252;58938;-75
2024/01/27 00:55:59;;;;;;;5.40;1.70;;;;;;;4.29;100.00;99431.65;109332;1252;59359;-74
2024/01/27 00:58:25;;;;;;;3.60;1.40;;;;;;;4.32;100.00;99434.73;109138;1254;65689;-76
2024/01/27 01:00:52;;;;;;;6.40;2.20;;;;;;;4.34;100.00;99436.92;109453;1254;60200;-76
2024/01/27 01:03:18;;;;;;;6.50;1.70;;;;;;;4.35;100.00;99444.29;109449;1253;65048;-76
2024/01/27 01:05:46;;;;;;;7.50;2.10;;;;;;;4.35;100.00;99449.92;109464;1253;58945;-76
2024/01/27 01:08:13;;;;;;;7.30;1.70;;;;;;;4.35;100.00;99453.77;109469;1253;59332;-74
2024/01/27 01:10:39;;;;;;;4.60;1.50;;;;;;;4.38;100.00;99460.17;109258;1253;65973;-77
2024/01/27 01:13:06;;;;;;;2.60;1.20;;;;;;;4.38;100.00;99459.47;109450;1253;61050;-76
2024/01/27 01:15:33;;;;;;;7.60;1.60;;;;;;;4.37;100.00;99459.70;109400;1252;65183;-75
2024/01/27 01:17:59;;;;;;;5.60;1.10;;;;;;;4.38;100.00;99462.50;109452;1253;59194;-76
2024/01/27 01:20:26;;;;;;;6.10;1.30;;;;;;;4.37;100.00;99470.24;109299;1253;60903;-77
2024/01/27 01:22:53;;;;;;;5.60;1.40;;;;;;;4.37;100.00;99469.55;109492;1253;67111;-76
2024/01/27 01:25:20;;;;;;;3.90;1.30;;;;;;;4.37;100.00;99470.77;109420;1252;60051;-76
2024/01/27 01:27:49;;;;;;;8.70;1.40;;;;;;;4.37;100.00;99472.53;109415;1252;65021;-77
2024/01/27 01:30:16;;;;;;;4.00;1.40;;;;;;;4.38;100.00;99480.27;109404;1252;58971;-77
2024/01/27 01:32:43;;;;;;;5.60;1.60;;;;;;;4.38;100.00;99480.06;109417;1252;59101;-76
2024/01/27 01:35:10;;;;;;;8.00;1.80;;;;;;;4.38;100.00;99478.84;109461;1252;66069;-76
2024/01/27 01:37:37;;;;;;;8.50;1.60;;;;;;;4.37;100.00;99485.20;109469;1252;60744;-76
2024/01/27 01:40:04;;;;;;;4.90;1.60;;;;;;;4.37;100.00;99489.25;109434;1252;65086;-76
2024/01/27 01:42:31;;;;;;;8.70;2.20;;;;;;;4.37;100.00;99484.50;109421;1252;59213;-76
2024/01/27 01:44:57;;;;;;;6.80;2.00;;;;;;;4.38;100.00;99487.63;109462;1252;59228;-76
2024/01/27 01:47:24;;;;;;;7.30;2.10;;;;;;;4.37;100.00;99485.19;109405;1253;65952;-76
2024/01/27 01:49:52;;;;;;;3.50;1.40;;;;;;;4.38;100.00;99485.86;109414;1253;61015;-77
2024/01/27 01:52:21;;;;;;;4.40;1.70;;;;;;;4.37;100.00;99490.48;109300;1253;65474;-75
2024/01/27 01:54:48;;;;;;;8.70;1.80;;;;;;;4.38;100.00;99494.64;109443;1253;58953;-76
2024/01/27 01:57:15;;;;;;;7.30;2.20;;;;;;;4.41;100.00;99493.70;109423;1251;59106;-77
2024/01/27 01:59:42;;;;;;;7.70;1.70;;;;;;;4.44;100.00;99503.98;109478;1253;66768;-76
2024/01/27 02:02:09;;;;;;;5.70;1.50;;;;;;;4.44;100.00;99502.21;109449;1254;61038;-76
2024/01/27 02:04:40;;;;;;;12.00;2.40;;;;;;;4.43;100.00;99504.38;109407;1252;64034;-75
2024/01/27 02:07:07;;;;;;;5.50;1.40;;;;;;;4.41;100.00;99510.58;109402;1252;58995;-75
2024/01/27 02:09:34;;;;;;;6.80;1.40;;;;;;;4.40;100.00;99502.85;109408;1252;59088;-76
2024/01/27 02:12:01;;;;;;;5.80;1.60;;;;;;;4.39;100.00;99513.27;109294;1253;66253;-76
2024/01/27 02:14:28;;;;;;;6.20;1.80;;;;;;;4.39;100.00;99514.14;109449;1252;61620;-76
2024/01/27 02:16:55;;;;;;;6.50;2.00;;;;;;;4.38;100.00;99508.58;109287;1253;65152;-76
2024/01/27 02:19:21;;;;;;;4.90;1.30;;;;;;;4.36;100.00;99507.75;109418;1252;59156;-76
2024/01/27 02:21:48;;;;;;;7.80;1.90;;;;;;;4.37;100.00;99510.01;109325;1252;59039;-76
2024/01/27 02:24:14;;;;;;;8.70;1.30;;;;;;;4.38;100.00;99510.32;109393;1251;67083;-76
2024/01/27 02:26:41;;;;;;;4.60;1.30;;;;;;;4.36;100.00;99509.35;109432;1252;61538;-76
2024/01/27 02:29:08;;;;;;;7.10;1.70;;;;;;;4.33;100.00;99509.63;109417;1252;64108;-77
2024/01/27 02:31:34;;;;;;;5.30;1.70;;;;;;;4.30;100.00;99508.15;109399;1252;59417;-75
2024/01/27 02:34:01;;;;;;;7.30;1.30;;;;;;;4.28;100.00;99505.55;109424;1252;59117;-75
2024/01/27 02:36:27;;;;;;;7.00;1.60;;;;;;;4.28;100.00;99508.04;109431;1253;67072;-76
2024/01/27 02:38:54;;;;;;;5.30;1.40;;;;;;;4.26;100.00;99509.14;109429;1252;60036;-76
2024/01/27 02:41:21;;;;;;;7.90;1.70;;;;;;;4.25;100.00;99507.95;109414;1252;64010;-76
2024/01/27 02:43:47;;;;;;;7.40;1.80;;;;;;;4.23;100.00;99514.88;109324;1253;59226;-77
2024/01/27 02:46:15;;;;;;;5.10;1.80;;;;;;;4.23;100.00;99520.70;109450;1252;59230;-76
2024/01/27 02:48:42;;;;;;;6.30;1.60;;;;;;;4.23;100.00;99521.55;109445;1252;67000;-76
2024/01/27 02:51:09;;;;;;;4.90;1.90;;;;;;;4.23;100.00;99518.21;109345;1254;60008;-77
2024/01/27 02:53:35;;;;;;;8.50;2.30;;;;;;;4.23;100.00;99525.25;109450;1252;65197;-77
2024/01/27 02:56:02;;;;;;;7.30;1.80;;;;;;;4.23;100.00;99523.84;109414;1253;59204;-76
2024/01/27 02:58:29;;;;;;;9.30;1.70;;;;;;;4.23;100.00;99525.96;109407;1252;59383;-77
2024/01/27 03:00:55;;;;;;;8.20;1.70;;;;;;;4.21;100.00;99525.48;109283;1253;66992;-76
2024/01/27 03:03:22;;;;;;;6.00;1.70;;;;;;;4.20;100.00;99521.48;109437;1252;60707;-77
2024/01/27 03:05:48;;;;;;;5.60;1.90;;;;;;;4.18;100.00;99521.70;109394;1252;64799;-76
2024/01/27 03:08:15;;;;;;;7.80;2.20;;;;;;;4.16;100.00;99520.54;109466;1252;59063;-75
2024/01/27 03:10:41;;;;;;;5.70;1.90;;;;;;;4.15;100.00;99525.84;109383;1253;59069;-76
2024/01/27 03:13:08;;;;;;;6.90;1.60;;;;;;;4.15;100.00;99527.11;109424;1252;66179;-77
2024/01/27 03:15:34;;;;;;;7.60;2.10;;;;;;;4.14;100.00;99532.58;109426;1252;61442;-76
2024/01/27 03:18:01;;;;;;;5.70;1.70;;;;;;;4.15;100.00;99538.35;109451;1252;65167;-77
2024/01/27 03:20:28;;;;;;;10.10;2.20;;;;;;;4.15;100.00;99538.17;109403;1252;59026;-76
2024/01/27 03:22:54;;;;;;;10.00;2.00;;;;;;;4.13;100.00;99539.81;109337;1253;59039;-77
2024/01/27 03:25:21;;;;;;;6.00;1.50;;;;;;;4.12;100.00;99530.86;109431;1252;67050;-76
2024/01/27 03:27:47;;;;;;;5.60;1.60;;;;;;;4.12;100.00;99532.13;109455;1251;60847;-77
2024/01/27 03:30:14;;;;;;;6.50;1.50;;;;;;;4.12;100.00;99528.42;109429;1252;65140;-76
2024/01/27 03:32:40;;;;;;;4.20;1.50;;;;;;;4.09;100.00;99528.52;109440;1252;58972;-77
2024/01/27 03:35:07;;;;;;;4.50;1.50;;;;;;;4.07;100.00;99533.35;109438;1251;59016;-76
2024/01/27 03:37:34;;;;;;;6.90;1.40;;;;;;;4.07;100.00;99538.59;109410;1252;67221;-76
2024/01/27 03:40:01;;;;;;;6.00;1.30;;;;;;;4.08;100.00;99550.88;109464;1252;60261;-75
2024/01/27 03:42:28;;;;;;;6.40;1.60;;;;;;;4.08;100.00;99562.30;109427;1252;63723;-76
2024/01/27 03:44:54;;;;;;;7.90;1.90;;;;;;;4.04;100.00;99562.45;109405;1252;58983;-76
2024/01/27 03:47:21;;;;;;;8.00;2.00;;;;;;;3.93;100.00;99566.46;109421;1252;59424;-75
2024/01/27 03:49:47;;;;;;;6.60;1.70;;;;;;;3.83;100.00;99576.60;108679;1252;1003135;-75
2024/01/27 03:52:14;;;;;;;8.90;1.90;;;;;;;3.75;100.00;99576.84;109478;1252;60043;-76
2024/01/27 03:54:40;;;;;;;6.90;2.20;;;;;;;3.67;100.00;99570.59;109051;1252;63980;-76
2024/01/27 03:57:07;;;;;;;7.80;1.80;;;;;;;3.58;100.00;99570.16;109149;1253;59117;-76
2024/01/27 03:59:33;;;;;;;9.20;1.80;;;;;;;3.50;100.00;99570.57;109449;1252;59041;-76
2024/01/27 04:02:00;;;;;;;8.10;2.10;;;;;;;3.43;100.00;99580.59;109447;1252;67058;-76
2024/01/27 04:04:27;;;;;;;7.90;1.90;;;;;;;3.38;100.00;99585.83;109399;1252;60846;-76
2024/01/27 04:06:53;;;;;;;7.50;2.40;;;;;;;3.35;100.00;99595.21;109481;1252;65170;-76
2024/01/27 04:09:20;;;;;;;8.10;1.90;;;;;;;3.33;100.00;99598.27;109397;1252;59023;-76
2024/01/27 04:11:46;;;;;;;7.60;2.30;;;;;;;3.29;100.00;99605.21;109273;1252;58981;-76
2024/01/27 04:14:13;;;;;;;9.00;2.30;;;;;;;3.25;100.00;99610.24;109383;1253;65999;-76
2024/01/27 04:16:39;;;;;;;6.90;1.80;;;;;;;3.21;100.00;99611.39;109340;1253;61421;-76
2024/01/27 04:19:06;;;;;;;6.30;2.50;;;;;;;3.20;100.00;99611.42;109404;1252;65095;-76
2024/01/27 04:21:33;;;;;;;12.50;2.70;;;;;;;3.17;100.00;99607.64;109407;1252;59000;-76
2024/01/27 04:23:59;;;;;;;9.80;2.00;;;;;;;3.17;100.00;99611.70;109459;1252;59008;-76
2024/01/27 04:26:26;;;;;;;10.20;2.40;;;;;;;3.17;100.00;99623.64;109409;1252;66704;-76
2024/01/27 04:28:52;;;;;;;7.60;2.30;;;;;;;3.16;100.00;99626.48;108676;1252;1002485;-76
2024/01/27 04:31:19;;;;;;;7.50;2.30;;;;;;;3.14;100.00;99632.15;109437;1252;65341;-75
2024/01/27 04:33:45;;;;;;;8.20;2.10;;;;;;;3.11;100.00;99626.77;109404;1252;59358;-76
2024/01/27 04:36:12;;;;;;;11.80;2.60;;;;;;;3.08;100.00;99626.14;109458;1252;59055;-75
2024/01/27 04:38:39;;;;;;;9.60;2.10;;;;;;;3.08;100.00;99626.67;109472;1252;65945;-75
2024/01/27 04:41:05;;;;;;;8.20;2.70;;;;;;;3.07;100.00;99626.69;109460;1252;59775;-76
2024/01/27 04:43:32;;;;;;;11.70;2.40;;;;;;;3.09;100.00;99626.66;109368;1252;65186;-76
2024/01/27 04:45:59;;;;;;;7.40;2.80;;;;;;;3.11;100.00;99630.83;109372;1252;59116;-77
2024/01/27 04:48:25;;;;;;;9.60;2.20;;;;;;;3.13;100.00;99633.05;109234;1252;59262;-76
2024/01/27 04:50:52;;;;;;;9.70;1.80;;;;;;;3.16;100.00;99628.76;109401;1252;65961;-77
2024/01/27 04:53:18;;;;;;;8.40;1.80;;;;;;;3.23;100.00;99626.09;109422;1252;58997;-77
2024/01/27 04:55:45;;;;;;;10.40;2.20;;;;;;;3.31;100.00;99626.41;109463;1252;64004;-76
2024/01/27 04:58:12;;;;;;;6.60;1.90;;;;;;;3.36;100.00;99624.36;109420;1252;58893;-76
2024/01/27 05:00:38;;;;;;;9.50;2.40;;;;;;;3.40;100.00;99626.70;109368;1253;58914;-76
2024/01/27 05:03:07;;;;;;;10.00;1.90;;;;;;;3.46;100.00;99633.57;109423;1252;66007;-75
2024/01/27 05:05:33;;;;;;;7.60;1.70;;;;;;;3.50;100.00;99638.70;109223;1253;59020;-76
2024/01/27 05:08:00;;;;;;;9.10;1.90;;;;;;;3.53;100.00;99641.27;109454;1252;63953;-77
2024/01/27 05:10:27;;;;;;;9.70;2.10;;;;;;;3.56;100.00;99644.34;109403;1252;58979;-76
2024/01/27 05:12:55;;;;;;;9.40;2.20;;;;;;;3.59;100.00;99645.33;109433;1252;59195;-76
2024/01/27 05:15:21;;;;;;;4.20;1.40;;;;;;;3.60;100.00;99646.00;109420;1252;65992;-76
2024/01/27 05:17:48;;;;;;;11.10;2.30;;;;;;;3.60;100.00;99646.34;109396;1252;59250;-76
2024/01/27 05:20:14;;;;;;;7.40;1.80;;;;;;;3.62;100.00;99652.24;109450;1252;65078;-77
2024/01/27 05:22:41;;;;;;;6.90;1.60;;;;;;;3.66;100.00;99651.11;109403;1252;59120;-77
2024/01/27 05:25:08;;;;;;;8.60;1.70;;;;;;;3.67;100.00;99654.22;109429;1251;58994;-76
2024/01/27 05:27:34;;;;;;;9.80;2.20;;;;;;;3.70;100.00;99658.17;109450;1252;66790;-77
2024/01/27 05:30:01;;;;;;;7.10;2.10;;;;;;;3.72;100.00;99659.37;109420;1252;60037;-77
2024/01/27 05:32:27;;;;;;;6.60;1.50;;;;;;;3.71;100.00;99663.06;109410;1252;65111;-76
2024/01/27 05:34:54;;;;;;;9.20;2.70;;;;;;;3.69;100.00;99664.52;109431;1252;59466;-76
2024/01/27 05:37:21;;;;;;;5.40;1.60;;;;;;;3.66;100.00;99664.95;109438;1253;59425;-76
2024/01/27 05:39:47;;;;;;;8.90;2.10;;;;;;;3.64;100.00;99665.92;109245;1253;67111;-76
2024/01/27 05:42:14;;;;;;;6.30;2.00;;;;;;;3.64;100.00;99677.35;109424;1252;61108;-75
2024/01/27 05:44:40;;;;;;;4.00;1.50;;;;;;;3.64;100.00;99677.15;109267;1253;64023;-77
2024/01/27 05:47:10;;;;;;;8.00;1.70;;;;;;;3.64;100.00;99673.64;109424;1252;59348;-77
2024/01/27 05:49:37;;;;;;;5.80;1.40;;;;;;;3.65;100.00;99670.98;109471;1252;58960;-76
2024/01/27 05:52:04;;;;;;;6.20;2.20;;;;;;;3.65;100.00;99667.63;109478;1252;67220;-77
2024/01/27 05:54:30;;;;;;;5.60;1.70;;;;;;;3.63;100.00;99671.04;109497;1252;61305;-76
2024/01/27 05:56:57;;;;;;;9.40;2.30;;;;;;;3.61;100.00;99673.73;109321;1253;62843;-76
2024/01/27 05:59:24;;;;;;;8.30;2.70;;;;;;;3.59;100.00;99673.96;109419;1252;59008;-76
2024/01/27 06:01:51;;;;;;;11.90;2.90;;;;;;;3.59;100.00;99675.90;109442;1252;58986;-77
2024/01/27 06:04:17;;;;;;;9.70;2.00;;;;;;;3.58;100.00;99675.38;109472;1252;67207;-76
2024/01/27 06:06:44;;;;;;;7.50;2.20;;;;;;;3.55;100.00;99671.79;109368;1253;60138;-77
2024/01/27 06:09:13;;;;;;;9.60;2.20;;;;;;;3.53;100.00;99671.85;109430;1252;64323;-77
2024/01/27 06:11:40;;;;;;;8.50;2.00;;;;;;;3.51;100.00;99676.45;109441;1252;58932;-76
2024/01/27 06:14:07;;;;;;;9.60;2.30;;;;;;;3.50;100.00;99675.44;109424;1252;59015;-77
2024/01/27 06:16:35;;;;;;;7.00;1.70;;;;;;;3.48;100.00;99675.84;109502;1252;67181;-77
2024/01/27 06:19:02;;;;;;;10.60;2.50;;;;;;;3.47;100.00;99681.48;109522;1252;61163;-76
2024/01/27 06:21:28;;;;;;;5.80;2.00;;;;;;;3.46;100.00;99685.72;109469;1252;64053;-77
2024/01/27 06:23:55;;;;;;;9.90;2.20;;;;;;;3.45;100.00;99683.82;109400;1253;59023;-77
2024/01/27 06:26:22;;;;;;;7.10;1.70;;;;;;;3.44;100.00;99684.54;109481;1252;59029;-76
2024/01/27 06:28:48;;;;;;;6.40;1.80;;;;;;;3.43;100.00;99690.02;109503;1252;67283;-76
2024/01/27 06:31:15;;;;;;;7.70;1.90;;;;;;;3.42;100.00;99691.80;109508;1252;60208;-76
2024/01/27 06:33:43;;;;;;;12.10;2.20;;;;;;;3.42;100.00;99695.67;109478;1252;65052;-76
2024/01/27 06:36:09;;;;;;;9.90;2.00;;;;;;;3.42;100.00;99699.72;109440;1252;59023;-76
2024/01/27 06:38:37;;;;;;;8.70;2.20;;;;;;;3.43;100.00;99700.73;109489;1252;59149;-76
2024/01/27 06:41:04;;;;;;;10.40;2.20;;;;;;;3.43;100.00;99696.70;109457;1252;66082;-77
2024/01/27 06:43:30;;;;;;;9.10;1.70;;;;;;;3.43;100.00;99699.68;109460;1252;59883;-76
2024/01/27 06:45:57;;;;;;;6.70;1.60;;;;;;;3.43;100.00;99700.73;109512;1252;64994;-76
2024/01/27 06:48:27;;;;;;;8.30;2.00;;;;;;;3.43;100.00;99700.56;109448;1252;59061;-75
2024/01/27 06:50:53;;;;;;;10.20;2.40;;;;;;;3.42;100.00;99705.33;109520;1251;58879;-78
2024/01/27 06:53:20;;;;;;;9.10;2.40;;;;;;;3.44;100.00;99709.31;109480;1252;66747;-77
2024/01/27 06:55:47;;;;;;;6.90;2.10;;;;;;;3.45;100.00;99715.96;109408;1253;59938;-77
2024/01/27 06:58:13;;;;;;;10.30;2.80;;;;;;;3.46;100.00;99722.10;109462;1252;65093;-77
2024/01/27 07:00:40;;;;;;;10.70;2.50;;;;;;;3.46;100.00;99726.32;109483;1251;59373;-77
2024/01/27 07:03:07;;;;;;;10.20;2.00;;;;;;;3.46;100.00;99729.63;109543;1251;59060;-78
2024/01/27 07:05:38;;;;;;;10.10;2.10;;;;;;;3.47;100.00;99728.04;109119;1253;73818;-76
2024/01/27 07:08:06;;;;;;;10.20;1.80;;;;;;;3.48;100.00;99736.27;109531;1252;60946;-76
2024/01/27 07:10:34;;;;;;;9.00;2.60;;;;;;;3.49;100.00;99730.45;109024;1253;62804;-76
2024/01/27 07:13:01;;;;;;;6.20;1.80;;;;;;;3.49;100.00;99739.92;109443;1252;59183;-76
2024/01/27 07:15:28;;;;;;;10.70;2.80;;;;;;;3.50;100.00;99739.21;109449;1251;59050;-76
2024/01/27 07:17:54;;;;;;;9.80;1.90;;;;;;;3.51;100.00;99739.34;109500;1252;67332;-77
2024/01/27 07:20:23;;;;;;;6.40;1.90;;;;;;;3.53;100.00;99743.17;109338;1253;59542;-77
2024/01/27 07:22:50;;;;;;;9.10;1.70;;;;;;;3.54;100.00;99746.13;109509;1251;65009;-77
2024/01/27 07:25:16;;;;;;;11.40;2.20;;;;;;;3.57;100.00;99750.45;109447;1251;58980;-77
2024/01/27 07:27:44;;;;;;;6.30;2.70;;;;;;;3.58;100.00;99752.35;109466;1251;59226;-76
2024/01/27 07:30:11;;;;;;;8.40;2.40;;;;;;;3.58;100.00;99758.67;109509;1252;66981;-77
2024/01/27 07:32:37;;;;;;;11.60;2.40;;;;;;;3.60;100.00;99755.98;109501;1252;60537;-76
2024/01/27 07:35:05;;;;;;;5.10;1.90;;;;;;;3.61;100.00;99754.90;109185;1254;64722;-76
2024/01/27 07:37:32;;;;;;;8.10;2.10;;;;;;;3.64;100.00;99755.20;109408;1253;60627;-77
2024/01/27 07:39:59;;;;;;;7.70;1.60;;;;;;;3.66;100.00;99752.14;109480;1253;58986;-77
2024/01/27 07:42:25;;;;;;;8.60;2.40;;;;;;;3.70;100.00;99753.45;109321;1253;66958;-77
2024/01/27 07:44:53;;;;;;;6.90;1.80;;;;;;;3.75;100.00;99745.73;109467;1253;60850;-77
2024/01/27 07:47:19;;;;;;;6.10;1.70;;;;;;;3.79;100.00;99742.14;109515;1251;64016;-77
2024/01/27 07:49:46;;;;;;;8.00;2.40;;;;;;;3.80;100.00;99745.80;109567;1251;58970;-76
2024/01/27 07:52:13;;;;;;;7.00;1.70;;;;;;;3.82;100.00;99748.36;109546;1251;59078;-77
2024/01/27 07:54:40;;;;;;;9.80;2.30;;;;;;;3.83;100.00;99751.14;109555;1250;66753;-78
2024/01/27 07:57:06;;;;;;;6.30;2.20;;;;;;;3.83;100.00;99746.05;109542;1251;61247;-75
2024/01/27 07:59:33;;;;;;;6.40;1.90;;;;;;;3.81;100.00;99754.35;109525;1251;65078;-76
2024/01/27 08:02:00;;;;;;;7.50;2.10;;;;;;;3.80;100.00;99749.48;109545;1251;59030;-75
2024/01/27 08:04:26;;;;;;;10.60;2.60;;;;;;;3.81;100.00;99754.01;109562;1251;59066;-76
2024/01/27 08:06:53;;;;;;;9.30;2.10;;;;;;;3.84;100.00;99756.05;109525;1251;65678;-76
2024/01/27 08:09:20;;;;;;;10.30;3.10;;;;;;;3.86;100.00;99752.64;109566;1251;60081;-76
2024/01/27 08:11:51;;;;;;;8.70;2.80;;;;;;;3.89;100.00;99750.45;109512;1251;64036;-76
2024/01/27 08:14:18;;;;;;;8.70;2.40;;;;;;;3.91;100.00;99755.67;109575;1251;59048;-76
2024/01/27 08:16:44;;;;;;;10.10;2.70;;;;;;;3.91;100.00;99761.80;109600;1251;59022;-76
2024/01/27 08:19:11;;;;;;;8.00;2.10;;;;;;;3.90;100.00;99769.24;109510;1251;66828;-76
2024/01/27 08:21:38;;;;;;;9.10;2.20;;;;;;;3.89;100.00;99773.48;109533;1250;61482;-76
2024/01/27 08:24:05;;;;;;;10.00;2.70;;;;;;;3.88;100.00;99778.06;109345;1251;64052;-76
2024/01/27 08:26:31;;;;;;;5.40;1.90;;;;;;;3.86;100.00;99771.46;109528;1251;59048;-77
2024/01/27 08:28:58;;;;;;;11.80;2.70;;;;;;;3.83;100.00;99775.94;109554;1251;59018;-77
2024/01/27 08:31:25;;;;;;;8.90;2.20;;;;;;;3.80;100.00;99774.96;109526;1251;65673;-75
2024/01/27 08:33:52;;;;;;;9.10;2.20;;;;;;;3.78;100.00;99773.64;109540;1251;59774;-76
2024/01/27 08:36:18;;;;;;;8.50;1.90;;;;;;;3.76;100.00;99775.27;109559;1251;64315;-76
2024/01/27 08:38:45;;;;;;;8.70;1.90;;;;;;;3.75;100.00;99773.14;109527;1251;59171;-76
2024/01/27 08:41:12;;;;;;;9.20;2.30;;;;;;;3.77;100.00;99768.36;109538;1251;58867;-75
2024/01/27 08:43:39;;;;;;;6.70;1.90;;;;;;;3.79;100.00;99761.64;109574;1251;67667;-76
2024/01/27 08:46:07;;;;;;;5.70;1.80;;;;;;;3.80;100.00;99769.52;109556;1251;61141;-76
2024/01/27 08:48:34;;;;;;;8.00;2.00;;;;;;;3.82;100.00;99774.90;109577;1251;64878;-76
2024/01/27 08:51:00;;;;;;;9.70;2.20;;;;;;;3.84;100.00;99769.05;109550;1251;59363;-76
2024/01/27 08:53:27;;;;;;;8.90;2.50;;;;;;;3.89;100.00;99765.92;109550;1251;58961;-76
2024/01/27 08:55:54;;;;;;;6.80;2.10;;;;;;;3.95;100.00;99764.53;109561;1251;65908;-76
2024/01/27 08:58:20;;;;;;;11.60;2.20;;;;;;;3.98;100.00;99761.27;109528;1251;61092;-76
2024/01/27 09:00:47;;;;;;;6.80;1.90;;;;;;;3.99;100.00;99763.89;109536;1251;63523;-76
2024/01/27 09:03:14;;;;;;;7.00;1.90;;;;;;;3.94;100.00;99759.63;109545;1251;59008;-76
2024/01/27 09:05:43;;;;;;;8.30;2.60;;;;;;;3.91;100.00;99768.34;109316;1251;59135;-76
2024/01/27 09:08:10;;;;;;;5.00;1.50;;;;;;;3.88;100.00;99765.62;109525;1251;65990;-76
2024/01/27 09:10:37;;;;;;;7.50;2.80;;;;;;;3.88;100.00;99765.44;109489;1251;59691;-76
2024/01/27 09:13:04;;;;;;;8.30;2.40;;;;;;;3.85;100.00;99768.14;109418;1251;63990;-75
2024/01/27 09:15:31;;;;;;;8.10;2.10;;;;;;;3.79;100.00;99762.86;109376;1251;59090;-76
2024/01/27 09:17:57;;;;;;;8.90;2.10;;;;;;;3.74;100.00;99755.77;109520;1251;58931;-76
2024/01/27 09:20:24;;;;;;;7.40;2.60;;;;;;;3.74;100.00;99761.06;109435;1251;67064;-76
2024/01/27 09:22:51;;;;;;;9.20;2.20;;;;;;;3.79;100.00;99762.51;109465;1251;60766;-78
2024/01/27 09:25:18;;;;;;;7.90;2.40;;;;;;;3.85;100.00;99766.20;109471;1251;65117;-77
2024/01/27 09:27:44;;;;;;;10.20;2.20;;;;;;;3.79;100.00;99774.28;109518;1251;59194;-76
2024/01/27 09:30:11;;;;;;;8.90;2.40;;;;;;;3.68;100.00;99776.34;109462;1251;59810;-76
2024/01/27 09:32:39;;;;;;;7.00;2.30;;;;;;;3.60;100.00;99781.65;109486;1251;66882;-76
2024/01/27 09:35:06;;;;;;;5.30;1.90;;;;;;;3.51;100.00;99783.98;109523;1251;59900;-77
2024/01/27 09:37:33;;;;;;;10.70;3.00;;;;;;;3.43;100.00;99797.18;109284;1251;63989;-77
2024/01/27 09:40:02;;;;;;;8.60;2.20;;;;;;;3.42;100.00;99800.90;109409;1253;58947;-77
2024/01/27 09:42:33;;;;;;;10.80;2.90;;;;;;;3.43;100.00;99800.17;109495;1251;59029;-77
2024/01/27 09:45:02;;;;;;;12.70;2.80;;;;;;;3.42;100.00;99802.48;109478;1251;67166;-76
2024/01/27 09:47:29;;;;;;;6.00;2.30;;;;;;;3.36;100.00;99803.52;109209;1251;59749;-77
2024/01/27 09:49:56;;;;;;;9.20;2.90;;;;;;;3.25;100.00;99803.41;109496;1251;64892;-77
2024/01/27 09:52:24;;;;;;;9.40;2.60;;;;;;;3.11;100.00;99796.89;109304;1251;59070;-77
2024/01/27 09:54:50;;;;;;;7.20;2.10;;;;;;;3.04;100.00;99797.05;109492;1253;59088;-77
2024/01/27 09:57:18;;;;;;;9.80;2.80;;;;;;;2.99;100.00;99795.60;109465;1252;67123;-77
2024/01/27 09:59:46;;;;;;;11.50;2.80;;;;;;;2.94;100.00;99793.97;109448;1253;127679;-76
2024/01/27 10:02:15;;;;;;;12.20;3.50;;;;;;;2.84;100.00;99787.33;109492;1253;64736;-77
2024/01/27 10:04:43;;;;;;;10.70;2.90;;;;;;;2.79;100.00;99784.30;109482;1252;59277;-78
2024/01/27 10:07:10;;;;;;;9.90;3.10;;;;;;;2.82;100.00;99785.45;109284;1253;59845;-78
2024/01/27 10:09:37;;;;;;;8.70;4.00;;;;;;;2.84;100.00;99784.73;109473;1253;66974;-78
2024/01/27 10:12:04;;;;;;;9.10;3.00;;;;;;;2.82;100.00;99780.38;109521;1253;60074;-77
2024/01/27 10:14:39;;;;;;;8.50;3.60;;;;;;;2.75;100.00;99774.02;109158;1251;65328;-77
2024/01/27 10:17:08;;;;;;;8.00;3.30;;;;;;;2.70;100.00;99778.36;109502;1253;58957;-77
2024/01/27 10:19:35;;;;;;;14.50;3.80;;;;;;;2.63;100.00;99787.97;109432;1251;59064;-76
2024/01/27 10:22:02;;;;;;;9.10;3.20;;;;;;;2.59;100.00;99791.93;109475;1253;66737;-77
2024/01/27 10:24:31;;;;;;;14.10;3.40;;;;;;;2.61;100.00;99792.77;109485;1252;61982;-77
2024/01/27 10:27:06;;;;;;;12.10;3.60;;;;;;;2.65;100.00;99790.77;109487;1253;65329;-76
2024/01/27 10:29:32;;;;;;;8.00;2.90;;;;;;;2.65;100.00;99783.90;109265;1251;59059;-78
2024/01/27 10:32:10;;;;;;;14.30;3.30;;;;;;;2.64;100.00;99785.52;109527;1253;59110;-76
2024/01/27 10:34:37;;;;;;;15.30;4.70;;;;;;;2.59;100.00;99786.64;109206;1252;67033;-77
2024/01/27 10:37:04;;;;;;;10.30;3.40;;;;;;;2.59;100.00;99786.49;109274;1253;60151;-77
2024/01/27 10:39:30;;;;;;;14.60;3.50;;;;;;;2.64;100.00;99779.88;109519;1253;65021;-78
2024/01/27 10:42:02;;;;;;;8.10;3.20;;;;;;;2.71;100.00;99772.90;109481;1251;59057;-79
2024/01/27 10:44:29;;;;;;;9.60;3.10;;;;;;;2.75;100.00;99774.90;109526;1252;59389;-77
2024/01/27 10:47:00;;;;;;;14.10;3.30;;;;;;;2.77;100.00;99774.88;109525;1251;66052;-78
2024/01/27 10:49:31;;;;;;;12.60;3.00;;;;;;;2.78;100.00;99775.20;109493;1253;60350;-77
2024/01/27 10:52:02;;;;;;;9.40;3.40;;;;;;;2.80;100.00;99774.97;109537;1251;64018;-76
2024/01/27 10:54:30;;;;;;;11.00;3.30;;;;;;;2.89;100.00;99777.23;109516;1252;58959;-78
2024/01/27 10:56:58;;;;;;;14.20;3.70;;;;;;;2.95;100.00;99776.55;109555;1251;59220;-77
2024/01/27 10:59:27;;;;;;;13.60;4.00;;;;;;;2.97;100.00;99777.56;109544;1253;65720;-78
2024/01/27 11:01:55;;;;;;;16.40;3.80;;;;;;;2.98;100.00;99775.27;109574;1251;61007;-77
2024/01/27 11:04:23;;;;;;;12.50;3.30;;;;;;;2.99;100.00;99778.91;109300;1251;63704;-76
2024/01/27 11:06:50;;;;;;;11.50;3.40;;;;;;;2.97;100.00;99775.99;109506;1253;59015;-77
2024/01/27 11:09:18;;;;;;;10.20;3.20;;;;;;;2.93;100.00;99772.73;109544;1251;59340;-77
2024/01/27 11:11:47;;;;;;;15.70;3.90;;;;;;;2.94;100.00;99779.21;109509;1251;66056;-77
2024/01/27 11:14:14;;;;;;;12.50;3.80;;;;;;;2.98;100.00;99778.59;109529;1251;59854;-76
2024/01/27 11:16:44;;;;;;;9.40;3.00;;;;;;;2.98;100.00;99779.13;109218;1251;65060;-77
2024/01/27 11:19:12;;;;;;;11.20;3.40;;;;;;;2.96;100.00;99781.64;109509;1253;59082;-77
2024/01/27 11:21:39;;;;;;;15.40;3.70;;;;;;;2.96;100.00;99783.90;109489;1252;59414;-77
2024/01/27 11:24:16;;;;;;;11.80;3.40;;;;;;;3.02;100.00;99784.98;109513;1253;65958;-77